sensor_id;sensor_type;location;lat;lon;timestamp;P1;durP1;ratioP1;P2;durP2;ratioP2
20794;SDS011;28087;-33.874;151.240;2023-03-07T00:02:22;8.45;;;1.70;;
20794;SDS011;28087;-33.874;151.240;2023-03-07T00:04:58;9.63;;;1.58;;
20794;SDS011;28087;-33.874;151.240;2023-03-07T00:07:34;10.52;;;1.80;;
20794;SDS011;28087;-33.874;151.240;2023-03-07T00:10:14;5.97;;;1.60;;
20794;SDS011;28087;-33.874;151.240;2023-03-07T00:12:51;8.75;;;1.70;;
20794;SDS011;28087;-33.874;151.240;2023-03-07T00:15:31;9.77;;;1.75;;
20794;SDS011;28087;-33.874;151.240;2023-03-07T00:18:13;7.25;;;1.80;;
20794;SDS011;28087;-33.874;151.240;2023-03-07T00:20:55;7.25;;;1.70;;
20794;SDS011;28087;-33.874;151.240;2023-03-07T00:23:32;6.70;;;1.67;;
20794;SDS011;28087;-33.874;151.240;2023-03-07T00:26:12;6.90;;;1.92;;
20794;SDS011;28087;-33.874;151.240;2023-03-07T00:28:50;6.97;;;1.98;;
20794;SDS011;28087;-33.874;151.240;2023-03-07T00:31:26;4.95;;;1.60;;
20794;SDS011;28087;-33.874;151.240;2023-03-07T00:34:04;8.95;;;2.17;;
20794;SDS011;28087;-33.874;151.240;2023-03-07T00:36:41;7.40;;;1.80;;
20794;SDS011;28087;-33.874;151.240;2023-03-07T00:39:19;8.30;;;1.92;;
20794;SDS011;28087;-33.874;151.240;2023-03-07T00:41:57;11.27;;;1.98;;
20794;SDS011;28087;-33.874;151.240;2023-03-07T00:44:35;10.82;;;2.10;;
20794;SDS011;28087;-33.874;151.240;2023-03-07T00:47:12;8.27;;;1.90;;
20794;SDS011;28087;-33.874;151.240;2023-03-07T00:49:49;5.78;;;1.80;;
20794;SDS011;28087;-33.874;151.240;2023-03-07T00:52:24;6.97;;;2.00;;
20794;SDS011;28087;-33.874;151.240;2023-03-07T00:55:00;9.35;;;2.25;;
20794;SDS011;28087;-33.874;151.240;2023-03-07T00:57:41;6.85;;;1.95;;
20794;SDS011;28087;-33.874;151.240;2023-03-07T01:00:17;10.20;;;1.90;;
20794;SDS011;28087;-33.874;151.240;2023-03-07T01:02:55;9.75;;;1.88;;
20794;SDS011;28087;-33.874;151.240;2023-03-07T01:05:37;8.43;;;1.67;;
20794;SDS011;28087;-33.874;151.240;2023-03-07T01:08:14;10.20;;;1.88;;
20794;SDS011;28087;-33.874;151.240;2023-03-07T01:10:57;7.40;;;2.10;;
20794;SDS011;28087;-33.874;151.240;2023-03-07T01:13:39;7.60;;;2.13;;
20794;SDS011;28087;-33.874;151.240;2023-03-07T01:16:18;9.40;;;2.03;;
20794;SDS011;28087;-33.874;151.240;2023-03-07T01:19:01;6.07;;;2.00;;
20794;SDS011;28087;-33.874;151.240;2023-03-07T01:21:55;12.98;;;2.30;;
20794;SDS011;28087;-33.874;151.240;2023-03-07T01:24:31;8.52;;;1.90;;
20794;SDS011;28087;-33.874;151.240;2023-03-07T01:27:10;6.82;;;1.80;;
20794;SDS011;28087;-33.874;151.240;2023-03-07T01:29:49;7.57;;;1.98;;
20794;SDS011;28087;-33.874;151.240;2023-03-07T01:32:37;5.43;;;1.80;;
20794;SDS011;28087;-33.874;151.240;2023-03-07T01:35:16;8.30;;;2.00;;
20794;SDS011;28087;-33.874;151.240;2023-03-07T01:37:54;7.07;;;1.80;;
20794;SDS011;28087;-33.874;151.240;2023-03-07T01:40:38;6.97;;;1.92;;
20794;SDS011;28087;-33.874;151.240;2023-03-07T01:43:23;9.13;;;1.77;;
20794;SDS011;28087;-33.874;151.240;2023-03-07T01:49:10;5.40;;;1.55;;
20794;SDS011;28087;-33.874;151.240;2023-03-07T01:51:58;7.65;;;1.75;;
20794;SDS011;28087;-33.874;151.240;2023-03-07T01:54:43;8.35;;;1.90;;
20794;SDS011;28087;-33.874;151.240;2023-03-07T01:57:25;4.32;;;1.63;;
20794;SDS011;28087;-33.874;151.240;2023-03-07T02:00:12;5.25;;;1.65;;
20794;SDS011;28087;-33.874;151.240;2023-03-07T02:03:05;7.47;;;1.60;;
20794;SDS011;28087;-33.874;151.240;2023-03-07T02:05:52;6.85;;;1.70;;
20794;SDS011;28087;-33.874;151.240;2023-03-07T02:08:32;6.97;;;1.83;;
20794;SDS011;28087;-33.874;151.240;2023-03-07T02:11:12;12.25;;;1.77;;
20794;SDS011;28087;-33.874;151.240;2023-03-07T02:14:01;6.68;;;1.52;;
20794;SDS011;28087;-33.874;151.240;2023-03-07T02:16:43;6.07;;;1.58;;
20794;SDS011;28087;-33.874;151.240;2023-03-07T02:19:35;6.53;;;1.40;;
20794;SDS011;28087;-33.874;151.240;2023-03-07T02:22:23;12.13;;;2.80;;
20794;SDS011;28087;-33.874;151.240;2023-03-07T02:25:01;12.15;;;2.90;;
20794;SDS011;28087;-33.874;151.240;2023-03-07T02:27:51;9.82;;;2.47;;
20794;SDS011;28087;-33.874;151.240;2023-03-07T02:30:34;11.57;;;2.60;;
20794;SDS011;28087;-33.874;151.240;2023-03-07T02:33:26;9.23;;;2.78;;
20794;SDS011;28087;-33.874;151.240;2023-03-07T02:36:14;10.10;;;2.63;;
20794;SDS011;28087;-33.874;151.240;2023-03-07T02:39:13;11.80;;;3.10;;
20794;SDS011;28087;-33.874;151.240;2023-03-07T02:41:53;11.38;;;3.67;;
20794;SDS011;28087;-33.874;151.240;2023-03-07T02:44:47;7.82;;;2.70;;
20794;SDS011;28087;-33.874;151.240;2023-03-07T02:47:34;13.50;;;2.90;;
20794;SDS011;28087;-33.874;151.240;2023-03-07T02:50:19;11.65;;;2.70;;
20794;SDS011;28087;-33.874;151.240;2023-03-07T02:52:56;9.45;;;2.45;;
20794;SDS011;28087;-33.874;151.240;2023-03-07T02:55:33;12.50;;;2.40;;
20794;SDS011;28087;-33.874;151.240;2023-03-07T02:58:11;10.50;;;2.38;;
20794;SDS011;28087;-33.874;151.240;2023-03-07T03:00:50;7.97;;;2.33;;
20794;SDS011;28087;-33.874;151.240;2023-03-07T03:03:26;9.55;;;1.92;;
20794;SDS011;28087;-33.874;151.240;2023-03-07T03:06:12;10.10;;;2.20;;
20794;SDS011;28087;-33.874;151.240;2023-03-07T03:08:51;8.10;;;2.30;;
20794;SDS011;28087;-33.874;151.240;2023-03-07T03:11:28;5.10;;;2.10;;
20794;SDS011;28087;-33.874;151.240;2023-03-07T03:14:04;7.90;;;2.00;;
20794;SDS011;28087;-33.874;151.240;2023-03-07T03:16:45;5.07;;;1.83;;
20794;SDS011;28087;-33.874;151.240;2023-03-07T03:19:23;7.43;;;1.80;;
20794;SDS011;28087;-33.874;151.240;2023-03-07T03:22:07;9.30;;;1.80;;
20794;SDS011;28087;-33.874;151.240;2023-03-07T04:35:47;7.07;;;1.30;;
20794;SDS011;28087;-33.874;151.240;2023-03-07T04:38:24;7.40;;;1.50;;
20794;SDS011;28087;-33.874;151.240;2023-03-07T04:41:00;8.40;;;1.42;;
20794;SDS011;28087;-33.874;151.240;2023-03-07T04:43:37;6.55;;;1.50;;
20794;SDS011;28087;-33.874;151.240;2023-03-07T04:46:13;5.43;;;1.20;;
20794;SDS011;28087;-33.874;151.240;2023-03-07T04:48:58;6.57;;;1.30;;
20794;SDS011;28087;-33.874;151.240;2023-03-07T04:51:38;6.35;;;1.35;;
20794;SDS011;28087;-33.874;151.240;2023-03-07T04:54:16;7.18;;;1.40;;
20794;SDS011;28087;-33.874;151.240;2023-03-07T04:56:52;6.50;;;1.40;;
20794;SDS011;28087;-33.874;151.240;2023-03-07T04:59:28;8.75;;;1.58;;
20794;SDS011;28087;-33.874;151.240;2023-03-07T05:02:06;6.10;;;1.30;;
20794;SDS011;28087;-33.874;151.240;2023-03-07T05:04:44;6.63;;;1.60;;
20794;SDS011;28087;-33.874;151.240;2023-03-07T05:07:23;7.95;;;1.35;;
20794;SDS011;28087;-33.874;151.240;2023-03-07T05:10:00;4.90;;;1.38;;
20794;SDS011;28087;-33.874;151.240;2023-03-07T05:12:36;9.65;;;1.50;;
20794;SDS011;28087;-33.874;151.240;2023-03-07T05:15:12;6.07;;;1.40;;
20794;SDS011;28087;-33.874;151.240;2023-03-07T05:17:48;7.15;;;1.40;;
20794;SDS011;28087;-33.874;151.240;2023-03-07T05:20:27;13.80;;;1.63;;
20794;SDS011;28087;-33.874;151.240;2023-03-07T05:23:06;7.03;;;1.55;;
20794;SDS011;28087;-33.874;151.240;2023-03-07T05:25:42;8.80;;;1.40;;
20794;SDS011;28087;-33.874;151.240;2023-03-07T05:28:20;7.78;;;1.50;;
20794;SDS011;28087;-33.874;151.240;2023-03-07T05:30:59;6.40;;;1.30;;
20794;SDS011;28087;-33.874;151.240;2023-03-07T05:33:34;5.70;;;1.60;;
20794;SDS011;28087;-33.874;151.240;2023-03-07T05:36:14;7.65;;;1.40;;
20794;SDS011;28087;-33.874;151.240;2023-03-07T05:38:52;8.13;;;1.48;;
20794;SDS011;28087;-33.874;151.240;2023-03-07T05:41:29;8.88;;;1.50;;
20794;SDS011;28087;-33.874;151.240;2023-03-07T05:44:04;6.88;;;1.45;;
20794;SDS011;28087;-33.874;151.240;2023-03-07T05:46:40;10.57;;;1.60;;
20794;SDS011;28087;-33.874;151.240;2023-03-07T05:49:17;8.23;;;1.40;;
20794;SDS011;28087;-33.874;151.240;2023-03-07T05:51:55;9.52;;;1.52;;
20794;SDS011;28087;-33.874;151.240;2023-03-07T05:54:35;7.85;;;1.15;;
20794;SDS011;28087;-33.874;151.240;2023-03-07T05:57:12;6.45;;;1.30;;
20794;SDS011;28087;-33.874;151.240;2023-03-07T05:59:47;5.00;;;1.13;;
20794;SDS011;28087;-33.874;151.240;2023-03-07T06:02:24;8.57;;;1.60;;
20794;SDS011;28087;-33.874;151.240;2023-03-07T06:04:59;7.38;;;1.25;;
20794;SDS011;28087;-33.874;151.240;2023-03-07T06:07:34;6.60;;;1.50;;
20794;SDS011;28087;-33.874;151.240;2023-03-07T06:10:13;6.97;;;1.27;;
20794;SDS011;28087;-33.874;151.240;2023-03-07T06:12:52;7.47;;;1.67;;
20794;SDS011;28087;-33.874;151.240;2023-03-07T06:15:27;5.68;;;1.40;;
20794;SDS011;28087;-33.874;151.240;2023-03-07T06:18:06;9.90;;;1.50;;
20794;SDS011;28087;-33.874;151.240;2023-03-07T06:20:53;7.05;;;1.40;;
20794;SDS011;28087;-33.874;151.240;2023-03-07T06:23:35;9.15;;;1.30;;
20794;SDS011;28087;-33.874;151.240;2023-03-07T06:26:16;8.05;;;1.60;;
20794;SDS011;28087;-33.874;151.240;2023-03-07T06:28:54;8.55;;;1.40;;
20794;SDS011;28087;-33.874;151.240;2023-03-07T06:31:30;7.32;;;1.52;;
20794;SDS011;28087;-33.874;151.240;2023-03-07T06:34:07;11.30;;;1.65;;
20794;SDS011;28087;-33.874;151.240;2023-03-07T06:36:43;9.25;;;1.73;;
20794;SDS011;28087;-33.874;151.240;2023-03-07T06:39:20;12.35;;;1.95;;
20794;SDS011;28087;-33.874;151.240;2023-03-07T06:42:04;10.50;;;1.83;;
20794;SDS011;28087;-33.874;151.240;2023-03-07T06:44:40;5.40;;;1.27;;
20794;SDS011;28087;-33.874;151.240;2023-03-07T06:53:31;8.15;;;1.60;;
20794;SDS011;28087;-33.874;151.240;2023-03-07T06:56:08;6.60;;;1.42;;
20794;SDS011;28087;-33.874;151.240;2023-03-07T07:00:12;9.07;;;1.70;;
20794;SDS011;28087;-33.874;151.240;2023-03-07T07:02:48;9.20;;;1.75;;
20794;SDS011;28087;-33.874;151.240;2023-03-07T07:05:24;10.38;;;1.98;;
20794;SDS011;28087;-33.874;151.240;2023-03-07T07:07:59;8.02;;;1.70;;
20794;SDS011;28087;-33.874;151.240;2023-03-07T07:10:38;8.50;;;1.95;;
20794;SDS011;28087;-33.874;151.240;2023-03-07T07:13:14;10.05;;;1.80;;
20794;SDS011;28087;-33.874;151.240;2023-03-07T07:15:53;10.43;;;2.05;;
20794;SDS011;28087;-33.874;151.240;2023-03-07T07:18:32;15.77;;;2.33;;
20794;SDS011;28087;-33.874;151.240;2023-03-07T07:21:09;10.77;;;2.15;;
20794;SDS011;28087;-33.874;151.240;2023-03-07T07:23:47;10.63;;;2.17;;
20794;SDS011;28087;-33.874;151.240;2023-03-07T07:26:23;10.05;;;1.90;;
20794;SDS011;28087;-33.874;151.240;2023-03-07T07:29:00;11.43;;;2.40;;
20794;SDS011;28087;-33.874;151.240;2023-03-07T07:31:39;12.02;;;2.25;;
20794;SDS011;28087;-33.874;151.240;2023-03-07T07:34:17;12.27;;;2.40;;
20794;SDS011;28087;-33.874;151.240;2023-03-07T07:36:53;10.95;;;2.22;;
20794;SDS011;28087;-33.874;151.240;2023-03-07T07:39:29;13.13;;;2.30;;
20794;SDS011;28087;-33.874;151.240;2023-03-07T07:42:04;12.35;;;2.60;;
20794;SDS011;28087;-33.874;151.240;2023-03-07T07:44:55;16.08;;;2.83;;
20794;SDS011;28087;-33.874;151.240;2023-03-07T07:47:33;16.90;;;2.80;;
20794;SDS011;28087;-33.874;151.240;2023-03-07T07:50:09;10.73;;;2.35;;
20794;SDS011;28087;-33.874;151.240;2023-03-07T07:52:46;14.27;;;2.78;;
20794;SDS011;28087;-33.874;151.240;2023-03-07T07:55:27;13.45;;;3.10;;
20794;SDS011;28087;-33.874;151.240;2023-03-07T07:58:02;15.23;;;3.05;;
20794;SDS011;28087;-33.874;151.240;2023-03-07T08:00:38;16.52;;;3.17;;
20794;SDS011;28087;-33.874;151.240;2023-03-07T08:03:17;19.45;;;2.97;;
20794;SDS011;28087;-33.874;151.240;2023-03-07T08:05:58;21.65;;;4.18;;
20794;SDS011;28087;-33.874;151.240;2023-03-07T08:08:35;15.73;;;3.60;;
20794;SDS011;28087;-33.874;151.240;2023-03-07T08:11:10;17.25;;;3.65;;
20794;SDS011;28087;-33.874;151.240;2023-03-07T08:13:46;18.55;;;3.50;;
20794;SDS011;28087;-33.874;151.240;2023-03-07T08:16:23;16.73;;;3.45;;
20794;SDS011;28087;-33.874;151.240;2023-03-07T08:19:00;24.10;;;3.47;;
20794;SDS011;28087;-33.874;151.240;2023-03-07T08:21:36;18.75;;;3.08;;
20794;SDS011;28087;-33.874;151.240;2023-03-07T08:24:12;19.83;;;3.65;;
20794;SDS011;28087;-33.874;151.240;2023-03-07T08:27:03;22.98;;;4.10;;
20794;SDS011;28087;-33.874;151.240;2023-03-07T08:29:47;16.75;;;3.67;;
20794;SDS011;28087;-33.874;151.240;2023-03-07T08:32:28;17.27;;;3.45;;
20794;SDS011;28087;-33.874;151.240;2023-03-07T08:35:06;19.23;;;3.65;;
20794;SDS011;28087;-33.874;151.240;2023-03-07T08:37:43;17.42;;;3.25;;
20794;SDS011;28087;-33.874;151.240;2023-03-07T08:40:20;24.52;;;3.90;;
20794;SDS011;28087;-33.874;151.240;2023-03-07T08:42:57;17.52;;;3.58;;
20794;SDS011;28087;-33.874;151.240;2023-03-07T08:45:33;21.63;;;3.88;;
20794;SDS011;28087;-33.874;151.240;2023-03-07T08:48:11;19.73;;;3.92;;
20794;SDS011;28087;-33.874;151.240;2023-03-07T08:50:49;17.90;;;4.05;;
20794;SDS011;28087;-33.874;151.240;2023-03-07T08:53:29;21.50;;;3.97;;
20794;SDS011;28087;-33.874;151.240;2023-03-07T08:56:05;17.13;;;3.35;;
20794;SDS011;28087;-33.874;151.240;2023-03-07T08:58:44;17.13;;;3.78;;
20794;SDS011;28087;-33.874;151.240;2023-03-07T09:01:20;21.10;;;3.67;;
20794;SDS011;28087;-33.874;151.240;2023-03-07T09:03:56;18.15;;;4.28;;
20794;SDS011;28087;-33.874;151.240;2023-03-07T09:06:34;22.17;;;4.38;;
20794;SDS011;28087;-33.874;151.240;2023-03-07T09:09:11;20.75;;;3.97;;
20794;SDS011;28087;-33.874;151.240;2023-03-07T09:11:50;23.08;;;4.22;;
20794;SDS011;28087;-33.874;151.240;2023-03-07T09:14:32;19.83;;;4.45;;
20794;SDS011;28087;-33.874;151.240;2023-03-07T09:17:07;22.10;;;4.68;;
20794;SDS011;28087;-33.874;151.240;2023-03-07T09:19:45;24.13;;;6.85;;
20794;SDS011;28087;-33.874;151.240;2023-03-07T09:22:22;19.83;;;4.43;;
20794;SDS011;28087;-33.874;151.240;2023-03-07T09:24:59;26.90;;;4.07;;
20794;SDS011;28087;-33.874;151.240;2023-03-07T09:27:35;23.45;;;4.80;;
20794;SDS011;28087;-33.874;151.240;2023-03-07T09:30:13;27.40;;;4.63;;
20794;SDS011;28087;-33.874;151.240;2023-03-07T09:32:53;20.02;;;3.75;;
20794;SDS011;28087;-33.874;151.240;2023-03-07T09:35:31;23.92;;;4.50;;
20794;SDS011;28087;-33.874;151.240;2023-03-07T09:38:09;22.52;;;5.28;;
20794;SDS011;28087;-33.874;151.240;2023-03-07T09:40:46;24.30;;;5.20;;
20794;SDS011;28087;-33.874;151.240;2023-03-07T09:43:24;24.35;;;5.43;;
20794;SDS011;28087;-33.874;151.240;2023-03-07T09:46:32;19.20;;;4.72;;
20794;SDS011;28087;-33.874;151.240;2023-03-07T09:49:18;18.70;;;4.72;;
20794;SDS011;28087;-33.874;151.240;2023-03-07T09:52:00;17.77;;;4.53;;
20794;SDS011;28087;-33.874;151.240;2023-03-07T09:54:47;21.08;;;5.15;;
20794;SDS011;28087;-33.874;151.240;2023-03-07T09:57:30;21.98;;;5.55;;
20794;SDS011;28087;-33.874;151.240;2023-03-07T10:00:13;26.85;;;5.88;;
20794;SDS011;28087;-33.874;151.240;2023-03-07T10:02:57;35.08;;;12.98;;
20794;SDS011;28087;-33.874;151.240;2023-03-07T10:05:46;20.02;;;7.22;;
20794;SDS011;28087;-33.874;151.240;2023-03-07T10:08:25;20.25;;;6.15;;
20794;SDS011;28087;-33.874;151.240;2023-03-07T10:11:47;24.92;;;9.40;;
20794;SDS011;28087;-33.874;151.240;2023-03-07T10:15:02;36.85;;;14.52;;
20794;SDS011;28087;-33.874;151.240;2023-03-07T10:17:55;24.10;;;5.82;;
20794;SDS011;28087;-33.874;151.240;2023-03-07T10:20:46;17.52;;;6.22;;
20794;SDS011;28087;-33.874;151.240;2023-03-07T10:23:31;20.90;;;6.40;;
20794;SDS011;28087;-33.874;151.240;2023-03-07T10:26:14;21.05;;;6.25;;
20794;SDS011;28087;-33.874;151.240;2023-03-07T10:28:59;23.52;;;5.47;;
20794;SDS011;28087;-33.874;151.240;2023-03-07T10:31:44;21.42;;;4.97;;
20794;SDS011;28087;-33.874;151.240;2023-03-07T10:34:27;21.10;;;4.70;;
20794;SDS011;28087;-33.874;151.240;2023-03-07T10:37:09;25.30;;;5.53;;
20794;SDS011;28087;-33.874;151.240;2023-03-07T10:39:52;22.13;;;5.40;;
20794;SDS011;28087;-33.874;151.240;2023-03-07T10:42:34;16.55;;;4.53;;
20794;SDS011;28087;-33.874;151.240;2023-03-07T10:45:13;20.80;;;5.00;;
20794;SDS011;28087;-33.874;151.240;2023-03-07T10:47:50;21.52;;;5.65;;
20794;SDS011;28087;-33.874;151.240;2023-03-07T10:50:31;19.92;;;5.38;;
20794;SDS011;28087;-33.874;151.240;2023-03-07T10:53:18;20.92;;;5.53;;
20794;SDS011;28087;-33.874;151.240;2023-03-07T10:56:07;24.88;;;5.80;;
20794;SDS011;28087;-33.874;151.240;2023-03-07T11:01:52;20.88;;;4.80;;
20794;SDS011;28087;-33.874;151.240;2023-03-07T11:04:41;23.00;;;5.28;;
20794;SDS011;28087;-33.874;151.240;2023-03-07T11:07:27;21.85;;;5.35;;
20794;SDS011;28087;-33.874;151.240;2023-03-07T11:10:22;18.25;;;4.88;;
20794;SDS011;28087;-33.874;151.240;2023-03-07T11:13:00;16.05;;;4.80;;
20794;SDS011;28087;-33.874;151.240;2023-03-07T11:15:46;18.83;;;5.53;;
20794;SDS011;28087;-33.874;151.240;2023-03-07T11:18:40;24.70;;;4.80;;
20794;SDS011;28087;-33.874;151.240;2023-03-07T11:21:29;21.95;;;5.60;;
20794;SDS011;28087;-33.874;151.240;2023-03-07T11:24:16;19.50;;;6.60;;
20794;SDS011;28087;-33.874;151.240;2023-03-07T11:26:58;23.60;;;5.00;;
20794;SDS011;28087;-33.874;151.240;2023-03-07T11:29:33;15.88;;;5.95;;
20794;SDS011;28087;-33.874;151.240;2023-03-07T11:32:11;17.60;;;5.13;;
20794;SDS011;28087;-33.874;151.240;2023-03-07T11:34:52;23.27;;;7.53;;
20794;SDS011;28087;-33.874;151.240;2023-03-07T11:37:31;19.67;;;5.60;;
20794;SDS011;28087;-33.874;151.240;2023-03-07T11:40:20;19.05;;;5.90;;
20794;SDS011;28087;-33.874;151.240;2023-03-07T11:43:03;17.98;;;5.43;;
20794;SDS011;28087;-33.874;151.240;2023-03-07T11:45:50;20.95;;;5.55;;
20794;SDS011;28087;-33.874;151.240;2023-03-07T11:48:40;17.58;;;5.30;;
20794;SDS011;28087;-33.874;151.240;2023-03-07T11:51:30;18.13;;;5.00;;
20794;SDS011;28087;-33.874;151.240;2023-03-07T11:54:22;17.17;;;4.90;;
20794;SDS011;28087;-33.874;151.240;2023-03-07T11:57:09;20.80;;;4.97;;
20794;SDS011;28087;-33.874;151.240;2023-03-07T12:06:02;18.50;;;4.82;;
20794;SDS011;28087;-33.874;151.240;2023-03-07T12:08:57;18.40;;;5.10;;
20794;SDS011;28087;-33.874;151.240;2023-03-07T12:11:49;21.42;;;6.95;;
20794;SDS011;28087;-33.874;151.240;2023-03-07T12:14:37;17.08;;;5.28;;
20794;SDS011;28087;-33.874;151.240;2023-03-07T12:17:23;18.13;;;6.25;;
20794;SDS011;28087;-33.874;151.240;2023-03-07T12:20:17;15.75;;;5.70;;
20794;SDS011;28087;-33.874;151.240;2023-03-07T12:23:03;16.35;;;4.88;;
20794;SDS011;28087;-33.874;151.240;2023-03-07T12:25:47;20.52;;;6.40;;
20794;SDS011;28087;-33.874;151.240;2023-03-07T12:28:27;26.38;;;8.93;;
20794;SDS011;28087;-33.874;151.240;2023-03-07T12:31:13;22.67;;;6.80;;
20794;SDS011;28087;-33.874;151.240;2023-03-07T12:33:53;19.52;;;4.85;;
20794;SDS011;28087;-33.874;151.240;2023-03-07T12:36:35;24.60;;;10.30;;
20794;SDS011;28087;-33.874;151.240;2023-03-07T12:39:16;17.70;;;5.35;;
20794;SDS011;28087;-33.874;151.240;2023-03-07T12:42:00;14.60;;;4.75;;
20794;SDS011;28087;-33.874;151.240;2023-03-07T12:44:39;15.02;;;4.90;;
20794;SDS011;28087;-33.874;151.240;2023-03-07T12:47:20;18.98;;;5.80;;
20794;SDS011;28087;-33.874;151.240;2023-03-07T12:50:08;15.93;;;5.07;;
20794;SDS011;28087;-33.874;151.240;2023-03-07T12:52:49;15.18;;;5.25;;
20794;SDS011;28087;-33.874;151.240;2023-03-07T12:55:29;16.73;;;6.03;;
20794;SDS011;28087;-33.874;151.240;2023-03-07T12:58:12;17.92;;;5.10;;
20794;SDS011;28087;-33.874;151.240;2023-03-07T13:00:53;14.75;;;4.88;;
20794;SDS011;28087;-33.874;151.240;2023-03-07T13:03:36;26.98;;;13.15;;
20794;SDS011;28087;-33.874;151.240;2023-03-07T13:06:19;14.43;;;5.45;;
20794;SDS011;28087;-33.874;151.240;2023-03-07T13:08:56;14.93;;;5.97;;
20794;SDS011;28087;-33.874;151.240;2023-03-07T13:11:34;19.35;;;4.90;;
20794;SDS011;28087;-33.874;151.240;2023-03-07T13:20:37;18.77;;;8.60;;
20794;SDS011;28087;-33.874;151.240;2023-03-07T13:23:27;27.92;;;14.23;;
20794;SDS011;28087;-33.874;151.240;2023-03-07T13:26:04;22.63;;;11.77;;
20794;SDS011;28087;-33.874;151.240;2023-03-07T13:28:47;19.25;;;4.63;;
20794;SDS011;28087;-33.874;151.240;2023-03-07T13:46:48;13.88;;;5.00;;
20794;SDS011;28087;-33.874;151.240;2023-03-07T13:52:22;15.35;;;5.28;;
20794;SDS011;28087;-33.874;151.240;2023-03-07T13:55:22;16.38;;;5.10;;
20794;SDS011;28087;-33.874;151.240;2023-03-07T13:58:14;18.23;;;4.38;;
20794;SDS011;28087;-33.874;151.240;2023-03-07T14:03:50;16.15;;;7.38;;
20794;SDS011;28087;-33.874;151.240;2023-03-07T14:06:29;19.58;;;10.35;;
20794;SDS011;28087;-33.874;151.240;2023-03-07T14:09:09;16.25;;;6.00;;
20794;SDS011;28087;-33.874;151.240;2023-03-07T14:11:48;13.65;;;5.63;;
20794;SDS011;28087;-33.874;151.240;2023-03-07T14:14:35;13.45;;;6.32;;
20794;SDS011;28087;-33.874;151.240;2023-03-07T14:17:25;12.98;;;4.57;;
20794;SDS011;28087;-33.874;151.240;2023-03-07T14:20:15;9.40;;;3.40;;
20794;SDS011;28087;-33.874;151.240;2023-03-07T14:23:07;8.77;;;2.88;;
20794;SDS011;28087;-33.874;151.240;2023-03-07T14:25:53;8.30;;;2.63;;
20794;SDS011;28087;-33.874;151.240;2023-03-07T14:28:46;10.82;;;4.30;;
20794;SDS011;28087;-33.874;151.240;2023-03-07T14:31:23;8.90;;;4.13;;
20794;SDS011;28087;-33.874;151.240;2023-03-07T14:34:00;9.40;;;4.35;;
20794;SDS011;28087;-33.874;151.240;2023-03-07T14:36:51;8.57;;;3.40;;
20794;SDS011;28087;-33.874;151.240;2023-03-07T14:39:31;10.48;;;5.68;;
20794;SDS011;28087;-33.874;151.240;2023-03-07T14:42:20;9.10;;;3.40;;
20794;SDS011;28087;-33.874;151.240;2023-03-07T14:45:11;7.45;;;3.03;;
20794;SDS011;28087;-33.874;151.240;2023-03-07T14:48:04;7.45;;;3.47;;
20794;SDS011;28087;-33.874;151.240;2023-03-07T14:50:47;7.20;;;3.17;;
20794;SDS011;28087;-33.874;151.240;2023-03-07T14:53:27;5.95;;;1.90;;
20794;SDS011;28087;-33.874;151.240;2023-03-07T14:56:05;13.23;;;5.53;;
20794;SDS011;28087;-33.874;151.240;2023-03-07T14:58:45;15.73;;;10.18;;
20794;SDS011;28087;-33.874;151.240;2023-03-07T15:01:26;12.98;;;7.22;;
20794;SDS011;28087;-33.874;151.240;2023-03-07T15:04:07;7.03;;;2.45;;
20794;SDS011;28087;-33.874;151.240;2023-03-07T15:06:57;13.30;;;7.32;;
20794;SDS011;28087;-33.874;151.240;2023-03-07T15:09:35;9.93;;;3.63;;
20794;SDS011;28087;-33.874;151.240;2023-03-07T15:12:11;6.85;;;2.65;;
20794;SDS011;28087;-33.874;151.240;2023-03-07T15:14:52;13.75;;;7.75;;
20794;SDS011;28087;-33.874;151.240;2023-03-07T15:17:34;12.63;;;6.30;;
20794;SDS011;28087;-33.874;151.240;2023-03-07T15:20:16;17.88;;;11.80;;
20794;SDS011;28087;-33.874;151.240;2023-03-07T15:22:58;12.27;;;6.78;;
20794;SDS011;28087;-33.874;151.240;2023-03-07T15:25:41;10.77;;;6.07;;
20794;SDS011;28087;-33.874;151.240;2023-03-07T15:28:20;8.43;;;4.57;;
20794;SDS011;28087;-33.874;151.240;2023-03-07T15:31:01;8.35;;;5.40;;
20794;SDS011;28087;-33.874;151.240;2023-03-07T15:33:39;7.18;;;3.28;;
20794;SDS011;28087;-33.874;151.240;2023-03-07T15:36:17;11.35;;;7.03;;
20794;SDS011;28087;-33.874;151.240;2023-03-07T15:42:00;7.68;;;3.30;;
20794;SDS011;28087;-33.874;151.240;2023-03-07T15:44:38;15.20;;;8.95;;
20794;SDS011;28087;-33.874;151.240;2023-03-07T15:47:14;16.73;;;8.73;;
20794;SDS011;28087;-33.874;151.240;2023-03-07T15:49:50;6.55;;;2.40;;
20794;SDS011;28087;-33.874;151.240;2023-03-07T15:52:29;8.02;;;2.10;;
20794;SDS011;28087;-33.874;151.240;2023-03-07T15:55:14;10.93;;;3.90;;
20794;SDS011;28087;-33.874;151.240;2023-03-07T15:57:54;8.50;;;3.83;;
20794;SDS011;28087;-33.874;151.240;2023-03-07T16:00:32;4.25;;;1.73;;
20794;SDS011;28087;-33.874;151.240;2023-03-07T16:03:17;5.38;;;2.20;;
20794;SDS011;28087;-33.874;151.240;2023-03-07T16:05:57;11.07;;;4.20;;
20794;SDS011;28087;-33.874;151.240;2023-03-07T16:08:34;4.53;;;1.83;;
20794;SDS011;28087;-33.874;151.240;2023-03-07T16:11:11;10.13;;;5.32;;
20794;SDS011;28087;-33.874;151.240;2023-03-07T16:13:51;4.32;;;1.70;;
20794;SDS011;28087;-33.874;151.240;2023-03-07T16:16:27;3.65;;;1.40;;
20794;SDS011;28087;-33.874;151.240;2023-03-07T16:19:04;4.78;;;1.70;;
20794;SDS011;28087;-33.874;151.240;2023-03-07T16:21:41;4.93;;;1.40;;
20794;SDS011;28087;-33.874;151.240;2023-03-07T16:24:16;5.10;;;1.50;;
20794;SDS011;28087;-33.874;151.240;2023-03-07T16:26:52;12.68;;;7.18;;
20794;SDS011;28087;-33.874;151.240;2023-03-07T16:29:30;20.00;;;12.90;;
20794;SDS011;28087;-33.874;151.240;2023-03-07T16:32:07;5.38;;;2.90;;
20794;SDS011;28087;-33.874;151.240;2023-03-07T16:34:44;6.55;;;2.28;;
20794;SDS011;28087;-33.874;151.240;2023-03-07T16:37:20;8.95;;;6.60;;
20794;SDS011;28087;-33.874;151.240;2023-03-07T16:39:56;9.07;;;4.13;;
20794;SDS011;28087;-33.874;151.240;2023-03-07T16:42:31;5.70;;;2.75;;
20794;SDS011;28087;-33.874;151.240;2023-03-07T16:45:13;6.35;;;2.20;;
20794;SDS011;28087;-33.874;151.240;2023-03-07T16:47:53;5.97;;;1.80;;
20794;SDS011;28087;-33.874;151.240;2023-03-07T16:50:30;6.57;;;2.60;;
20794;SDS011;28087;-33.874;151.240;2023-03-07T16:53:06;6.65;;;1.92;;
20794;SDS011;28087;-33.874;151.240;2023-03-07T16:55:41;6.47;;;1.80;;
20794;SDS011;28087;-33.874;151.240;2023-03-07T16:58:19;5.03;;;1.40;;
20794;SDS011;28087;-33.874;151.240;2023-03-07T17:00:58;5.53;;;1.63;;
20794;SDS011;28087;-33.874;151.240;2023-03-07T17:03:34;6.50;;;1.70;;
20794;SDS011;28087;-33.874;151.240;2023-03-07T17:06:12;6.63;;;1.55;;
20794;SDS011;28087;-33.874;151.240;2023-03-07T17:08:56;7.38;;;1.52;;
20794;SDS011;28087;-33.874;151.240;2023-03-07T17:11:32;6.10;;;1.52;;
20794;SDS011;28087;-33.874;151.240;2023-03-07T17:14:08;4.95;;;1.65;;
20794;SDS011;28087;-33.874;151.240;2023-03-07T17:16:49;6.00;;;1.45;;
20794;SDS011;28087;-33.874;151.240;2023-03-07T17:19:28;4.57;;;1.65;;
20794;SDS011;28087;-33.874;151.240;2023-03-07T17:22:05;4.93;;;1.50;;